Freeburg, Missouri
Current Conditions -  °F | °C
As of 11:53 PM on Saturday 20 Dec 2014 (Local Time) from KVIH Reporting Station
Overcast Overcast  
Wind Chill:   Ceiling: 1600
Heat Index:   Visibility: 10mi
Dew Point:   Wind: 8mph
Humidity: 82%   Direction: 200°SSW
Pressure: 30.19"   Gusts: NA
Location:  38.32°N, 91.92°W
Report Text: KVIH 210553Z AUTO 20007KT 10SM OVC016 04/01 A3019 RMK AO2 SLP229 T00390011 10044 20039 400500011 57001
Loading
Personal Weather Stations






























Interactive Weather Map New forecast layout! Learn more

10-Day Weather Forecast

Advertisements
Track Severe Weather on mobile